Portada
METAR-TAF:

METAR-TAF

Aeropuertos :

Aruba, Aruba

Aeropuerto Internacional Reina Beatrix

latitud: 12-30N, longitud: 070-01W, altitud: 18 m

Observación

El informe se hizo hace 32 minutos, a las 20:00 UTC
Viento 17 kt del este-noreste
Temperatura 28°C
Humedad 74%
Presión 1013 hPa
Visibilidad 10 km o más
Nubes dispersas a una altura de 2000 ft

METAR: TNCA 232000Z 07017KT 9999 SCT020 28/23 Q1013 RERA NOSIG

Hora: 16:32 (20:32 UTC)

Pronóstico

El informe se hizo hace 4 horas y 32 minutos, a las 16:00 UTC
Pronóstico válido del 23 a las 18 UTC al 24 a las 18 UTC
Viento 18 kt del este
Visibilidad 10 km o más
Nubes dispersas a una altura de 2000 ft
Temporalmente
del 23 a las 18 UTC al 24 a las 18 UTC
Visibilidad: 6000 m
Cielo nuboso a una altura de 1500 ft
chaparrones de lluvia

TAF: TNCA 231600Z 2318/2418 08018KT 9999 SCT020 TEMPO 2318/2418 6000 SHRA BKN015

Observaciones y pronósticos meteorológicos de más de 4000 aeropuertos (mensajes METAR y TAF).

Los puntos amarillos y rojos representan las estaciones disponibles.

Ponga el ratón en el punto deseado para ver el nombre de la estación.

Haga clic para ver las observaciones y los pronósticos meteorológicos.

Para cambiar el mapa : haga clic en los botones verdes con una cruz de color negro para hacer un zoom, en el botón verde con un guión para alejar o en las flechas verdes para mapas adyacentes.


METAR-TAF: